Portada
METAR-TAF:

METAR-TAF

Aeroports :

Central Park

Nova York, Nova York, Estats Units d'Amèrica

latitud: 40-47-00N, longitud: 073-58-00W, altitud: 47 m

Observació

L'informe es va fer fa 46 minuts, a les 15:51 UTC
Vent calma
Temperatura 23°C
Humitat 94%
Pressió 1011 hPa
Visibilitat: 4.8 km
Cel cobert a una alçada de 1000 ft
boirina

METAR: KNYC 251551Z AUTO 00000KT 3SM BR OVC010 23/22 A2985 RMK AO2 SLP098 T02330217 $

Hora: 12:37 (16:37 UTC)


TAF: manca

Observacions i pronòstics meteorològics de més de 4000 aeroports (METAR i TAF).

Les estacions disponibles són els punts grocs i vermells al mapa.

Posi el ratolí al punt desitjat per veure el nom de l'estació.

Feu clic per veure les observacions i els pronòstics meteorològics.

Per canviar el mapa: feu clic els botons verds amb una creu de color negre per apropar; al botó verd amb un guió per allunyar la imatge; o en les fletxes verdes per a mapes adjacents.


METAR-TAF: